createdAt,value
2023-01-08T00:01:33.325Z,13.43
2023-01-08T00:04:00.839Z,14.25
2023-01-08T00:06:28.477Z,12.55
2023-01-08T00:08:55.930Z,14.57
2023-01-08T00:11:23.630Z,21.25
2023-01-08T00:13:51.159Z,13.93
2023-01-08T00:16:20.468Z,12.98
2023-01-08T00:18:48.121Z,11.85
2023-01-08T00:21:15.736Z,11.27
2023-01-08T00:23:43.228Z,12.07
2023-01-08T00:26:11.813Z,11.50
2023-01-08T00:28:40.090Z,11.20
2023-01-08T00:31:09.292Z,10.90
2023-01-08T00:33:37.705Z,10.98
2023-01-08T00:36:17.053Z,9.73
2023-01-08T00:38:45.691Z,11.20
2023-01-08T00:41:14.561Z,11.10
2023-01-08T00:43:44.696Z,10.93
2023-01-08T00:46:12.247Z,11.43
2023-01-08T00:48:39.667Z,10.52
2023-01-08T00:51:08.921Z,9.15
2023-01-08T00:53:38.294Z,10.27
2023-01-08T00:56:08.612Z,8.68
2023-01-08T00:58:36.408Z,8.40
2023-01-08T01:01:10.487Z,8.65
2023-01-08T01:03:38.060Z,7.30
2023-01-08T01:06:06.199Z,7.25
2023-01-08T01:08:34.655Z,6.55
2023-01-08T01:11:26.673Z,6.88
2023-01-08T01:13:56.314Z,6.85
2023-01-08T01:16:23.815Z,6.35
2023-01-08T01:18:52.605Z,7.18
2023-01-08T01:21:24.426Z,7.05
2023-01-08T01:23:55.027Z,5.95
2023-01-08T01:26:23.436Z,6.60
2023-01-08T01:28:52.554Z,6.65
2023-01-08T01:31:20.857Z,6.68
2023-01-08T01:33:48.863Z,6.65
2023-01-08T01:36:21.621Z,7.00
2023-01-08T01:38:51.048Z,6.85
2023-01-08T01:41:29.404Z,6.72
2023-01-08T01:44:01.762Z,6.82
2023-01-08T01:49:14.849Z,6.20
2023-01-08T01:51:46.853Z,6.10
2023-01-08T01:54:16.790Z,5.90
2023-01-08T01:56:44.687Z,5.72
2023-01-08T01:59:13.222Z,4.93
2023-01-08T02:01:42.789Z,5.45
2023-01-08T02:04:12.721Z,5.60
2023-01-08T02:06:57.684Z,5.05
2023-01-08T02:09:46.387Z,5.05
2023-01-08T02:12:26.295Z,5.20
2023-01-08T02:15:22.257Z,4.55
2023-01-08T02:18:09.194Z,4.68
2023-01-08T02:20:39.801Z,4.82
2023-01-08T02:23:49.073Z,4.35
2023-01-08T02:26:25.318Z,5.00
2023-01-08T02:28:52.682Z,4.82
2023-01-08T02:31:21.857Z,4.55
2023-01-08T02:33:51.560Z,4.25
2023-01-08T02:36:27.873Z,4.90
2023-01-08T02:39:16.769Z,4.13
2023-01-08T02:42:14.753Z,4.50
2023-01-08T02:45:19.591Z,4.50
2023-01-08T02:47:50.270Z,4.28
2023-01-08T02:50:31.218Z,4.10
2023-01-08T02:53:19.389Z,3.70
2023-01-08T02:55:52.418Z,3.80
2023-01-08T02:58:21.891Z,3.88
2023-01-08T03:00:50.506Z,3.58
2023-01-08T03:03:27.560Z,3.72
2023-01-08T03:05:59.041Z,3.88
2023-01-08T03:08:27.710Z,3.25
2023-01-08T03:11:10.359Z,3.92
2023-01-08T03:13:45.523Z,3.95
2023-01-08T03:16:17.983Z,3.90
2023-01-08T03:18:51.975Z,4.00
2023-01-08T03:21:22.400Z,5.38
2023-01-08T03:23:51.161Z,4.20
2023-01-08T03:26:24.544Z,4.20
2023-01-08T03:28:58.325Z,4.13
2023-01-08T03:31:28.391Z,4.60
2023-01-08T03:33:56.778Z,3.88
2023-01-08T03:36:28.798Z,4.20
2023-01-08T03:39:17.098Z,4.13
2023-01-08T03:41:44.813Z,5.05
2023-01-08T03:44:12.222Z,4.95
2023-01-08T03:46:44.751Z,4.35
2023-01-08T03:49:13.140Z,4.95
2023-01-08T03:51:46.150Z,4.07
2023-01-08T03:54:16.450Z,4.40
2023-01-08T03:56:44.263Z,4.40
2023-01-08T03:59:14.941Z,4.32
2023-01-08T04:01:43.320Z,4.32
2023-01-08T04:04:11.601Z,4.68
2023-01-08T04:06:39.284Z,4.57
2023-01-08T04:09:07.090Z,4.50
2023-01-08T04:11:34.433Z,4.45
2023-01-08T04:14:01.936Z,4.47
2023-01-08T04:16:29.398Z,3.90
2023-01-08T04:18:56.760Z,5.13
2023-01-08T04:21:24.098Z,4.53
2023-01-08T04:23:51.556Z,5.50
2023-01-08T04:26:21.729Z,5.40
2023-01-08T04:28:49.242Z,4.78
2023-01-08T04:31:16.807Z,4.97
2023-01-08T04:33:44.133Z,4.85
2023-01-08T04:36:11.830Z,4.80
2023-01-08T04:38:39.301Z,4.97
2023-01-08T04:41:06.751Z,4.82
2023-01-08T04:43:34.226Z,5.50
2023-01-08T04:46:03.888Z,5.63
2023-01-08T04:48:31.544Z,5.13
2023-01-08T04:51:02.588Z,5.28
2023-01-08T04:53:30.999Z,4.80
2023-01-08T04:56:10.619Z,5.28
2023-01-08T04:58:39.354Z,5.15
2023-01-08T05:01:21.414Z,4.88
2023-01-08T05:03:52.949Z,5.15
2023-01-08T05:06:20.393Z,4.77
2023-01-08T05:08:47.771Z,4.72
2023-01-08T05:11:15.213Z,5.05
2023-01-08T05:13:42.651Z,5.78
2023-01-08T05:16:10.235Z,4.88
2023-01-08T05:18:37.683Z,4.93
2023-01-08T05:21:05.617Z,5.93
2023-01-08T05:23:33.798Z,5.15
2023-01-08T05:26:03.955Z,5.25
2023-01-08T05:28:31.800Z,4.95
2023-01-08T05:30:59.930Z,5.15
2023-01-08T05:33:27.798Z,4.88
2023-01-08T05:35:55.168Z,5.20
2023-01-08T05:38:22.964Z,5.22
2023-01-08T05:40:53.523Z,5.45
2023-01-08T05:43:21.051Z,5.47
2023-01-08T05:45:48.471Z,5.93
2023-01-08T05:48:15.975Z,5.40
2023-01-08T05:50:43.448Z,5.82
2023-01-08T05:53:11.090Z,5.68
2023-01-08T05:55:38.503Z,6.07
2023-01-08T05:58:06.364Z,5.60
2023-01-08T06:00:34.905Z,5.55
2023-01-08T06:03:02.551Z,5.50
2023-01-08T06:05:31.478Z,5.22
2023-01-08T06:08:00.206Z,5.10
2023-01-08T06:10:27.877Z,6.35
2023-01-08T06:12:55.782Z,6.05
2023-01-08T06:15:23.311Z,5.05
2023-01-08T06:17:53.953Z,5.13
2023-01-08T06:20:21.289Z,5.68
2023-01-08T06:22:49.919Z,4.97
2023-01-08T06:25:17.378Z,5.03
2023-01-08T06:27:44.750Z,4.72
2023-01-08T06:30:12.330Z,4.30
2023-01-08T06:32:39.682Z,4.57
2023-01-08T06:35:07.400Z,4.97
2023-01-08T06:37:34.753Z,5.05
2023-01-08T06:40:02.164Z,4.97
2023-01-08T06:42:29.540Z,4.82
2023-01-08T06:44:56.919Z,4.72
2023-01-08T06:47:24.201Z,4.60
2023-01-08T06:49:51.588Z,4.60
2023-01-08T06:52:18.933Z,4.95
2023-01-08T06:54:46.480Z,5.22
2023-01-08T06:57:13.853Z,4.93
2023-01-08T06:59:41.376Z,4.50
2023-01-08T07:02:16.942Z,4.95
2023-01-08T07:04:44.623Z,4.80
2023-01-08T07:07:14.557Z,5.40
2023-01-08T07:09:43.225Z,7.47
2023-01-08T07:12:16.621Z,7.65
2023-01-08T07:14:44.139Z,7.90
2023-01-08T07:17:11.497Z,8.27
2023-01-08T07:19:38.933Z,8.63
2023-01-08T07:22:06.412Z,9.35
2023-01-08T07:24:33.814Z,8.55
2023-01-08T07:27:01.116Z,8.00
2023-01-08T07:29:28.664Z,8.25
2023-01-08T07:31:56.109Z,8.07
2023-01-08T07:34:23.775Z,8.15
2023-01-08T07:36:54.156Z,8.68
2023-01-08T07:39:21.622Z,8.40
2023-01-08T07:41:51.388Z,9.10
2023-01-08T07:44:21.302Z,8.25
2023-01-08T07:46:49.753Z,8.77
2023-01-08T07:49:20.362Z,8.80
2023-01-08T07:51:56.144Z,7.97
2023-01-08T07:54:23.617Z,7.32
2023-01-08T07:56:50.964Z,8.02
2023-01-08T07:59:19.464Z,7.47
2023-01-08T08:01:46.999Z,6.55
2023-01-08T08:04:47.503Z,7.00
2023-01-08T08:07:15.669Z,14.60
2023-01-08T08:09:46.049Z,14.20
2023-01-08T08:12:14.459Z,8.30
2023-01-08T08:14:41.814Z,7.35
2023-01-08T08:17:09.268Z,7.72
2023-01-08T08:19:50.910Z,5.65
2023-01-08T08:22:21.248Z,4.32
2023-01-08T08:24:48.582Z,5.38
2023-01-08T08:27:18.979Z,7.50
2023-01-08T08:29:46.481Z,7.63
2023-01-08T08:32:13.932Z,7.15
2023-01-08T08:34:41.217Z,6.65
2023-01-08T08:37:09.097Z,5.57
2023-01-08T08:39:37.272Z,4.80
2023-01-08T08:42:04.756Z,4.25
2023-01-08T08:44:32.141Z,3.92
2023-01-08T08:46:59.641Z,3.80
2023-01-08T08:49:26.981Z,3.40
2023-01-08T08:51:57.173Z,5.22
2023-01-08T08:54:24.484Z,5.43
2023-01-08T08:56:51.874Z,4.32
2023-01-08T08:59:19.244Z,4.70
2023-01-08T09:01:46.679Z,2.20
2023-01-08T09:04:14.175Z,2.22
2023-01-08T09:06:41.615Z,2.00
2023-01-08T09:09:09.895Z,3.67
2023-01-08T09:11:37.669Z,3.28
2023-01-08T09:14:05.075Z,2.88
2023-01-08T09:16:33.301Z,3.28
2023-01-08T09:19:00.710Z,10.38
2023-01-08T09:21:44.496Z,11.45
2023-01-08T09:24:12.447Z,3.60
2023-01-08T09:26:43.590Z,2.40
2023-01-08T09:29:11.069Z,3.00
2023-01-08T09:31:38.987Z,3.55
2023-01-08T09:34:06.613Z,3.83
2023-01-08T09:36:34.344Z,4.00
2023-01-08T09:39:01.938Z,3.72
2023-01-08T09:41:37.053Z,4.13
2023-01-08T09:44:07.056Z,3.35
2023-01-08T09:46:36.514Z,4.13
2023-01-08T09:49:07.964Z,3.28
2023-01-08T09:51:37.013Z,3.22
2023-01-08T09:54:07.623Z,2.33
2023-01-08T09:56:35.903Z,2.10
2023-01-08T09:59:05.067Z,2.30
2023-01-08T10:01:41.261Z,2.38
2023-01-08T10:04:15.049Z,9.93
2023-01-08T10:06:52.157Z,3.67
2023-01-08T10:09:25.682Z,2.50
2023-01-08T10:11:56.605Z,2.97
2023-01-08T10:14:32.464Z,5.30
2023-01-08T10:17:14.670Z,5.55
2023-01-08T10:19:42.492Z,5.40
2023-01-08T10:22:18.757Z,3.08
2023-01-08T10:24:46.716Z,3.60
2023-01-08T10:27:15.637Z,2.55
2023-01-08T10:29:43.465Z,1.60
2023-01-08T10:32:37.286Z,1.98
2023-01-08T10:35:07.122Z,1.40
2023-01-08T10:37:42.695Z,1.35
2023-01-08T10:40:38.671Z,4.70
2023-01-08T10:43:30.806Z,1.88
2023-01-08T10:46:38.762Z,1.70
2023-01-08T10:49:08.313Z,2.22
2023-01-08T10:51:35.744Z,1.40
2023-01-08T10:54:23.868Z,1.65
2023-01-08T10:56:51.256Z,1.80
2023-01-08T10:59:23.481Z,2.42
2023-01-08T11:01:56.186Z,2.00
2023-01-08T11:04:29.213Z,2.00
2023-01-08T11:07:00.023Z,1.73
2023-01-08T11:09:38.690Z,1.70
2023-01-08T11:12:20.257Z,2.10
2023-01-08T11:14:47.696Z,2.20
2023-01-08T11:17:15.473Z,12.45
2023-01-08T11:19:42.880Z,2.50
2023-01-08T11:22:20.376Z,2.40
2023-01-08T11:24:52.310Z,2.10
2023-01-08T11:27:28.410Z,2.15
2023-01-08T11:30:12.677Z,3.15
2023-01-08T11:33:02.448Z,1.70
2023-01-08T11:35:39.481Z,2.35
2023-01-08T11:38:08.530Z,1.83
2023-01-08T11:40:55.602Z,1.70
2023-01-08T11:43:41.804Z,2.17
2023-01-08T11:46:33.737Z,1.70
2023-01-08T11:49:27.903Z,1.67
2023-01-08T11:52:21.772Z,2.03
2023-01-08T11:55:03.697Z,1.83
2023-01-08T11:58:00.538Z,1.42
2023-01-08T12:00:59.037Z,2.30
2023-01-08T12:04:04.219Z,4.00
2023-01-08T12:06:41.610Z,1.92
2023-01-08T12:09:33.106Z,1.88
2023-01-08T12:14:54.826Z,1.58
2023-01-08T12:17:48.318Z,2.40
2023-01-08T12:20:36.082Z,2.20
2023-01-08T12:23:27.694Z,5.00
2023-01-08T12:25:58.182Z,2.40
2023-01-08T12:28:50.483Z,2.50
2023-01-08T12:31:28.706Z,2.33
2023-01-08T12:34:12.489Z,2.47
2023-01-08T12:37:03.853Z,1.70
2023-01-08T12:39:36.994Z,1.73
2023-01-08T12:42:14.428Z,1.83
2023-01-08T12:44:41.951Z,1.80
2023-01-08T12:47:16.516Z,2.00
2023-01-08T12:49:51.765Z,4.93
2023-01-08T12:52:26.892Z,8.65
2023-01-08T12:55:15.623Z,2.20
2023-01-08T12:58:11.151Z,1.20
2023-01-08T13:00:43.771Z,1.30
2023-01-08T13:03:15.658Z,1.40
2023-01-08T13:05:44.191Z,1.90
2023-01-08T13:08:35.551Z,1.88
2023-01-08T13:11:04.125Z,2.20
2023-01-08T13:13:39.421Z,1.75
2023-01-08T13:16:14.528Z,1.60
2023-01-08T13:18:51.380Z,2.47
2023-01-08T13:21:27.528Z,3.75
2023-01-08T13:24:04.259Z,1.60
2023-01-08T13:26:35.054Z,1.60
2023-01-08T13:29:40.536Z,1.70
2023-01-08T13:32:37.199Z,1.60
2023-01-08T13:35:17.006Z,1.70
2023-01-08T13:38:05.237Z,1.83
2023-01-08T13:40:44.998Z,1.70
2023-01-08T13:43:40.287Z,2.15
2023-01-08T13:46:19.301Z,1.40
2023-01-08T13:48:58.112Z,1.67
2023-01-08T13:51:44.427Z,38.33
2023-01-08T13:54:17.986Z,4.22
2023-01-08T13:56:49.971Z,2.50
2023-01-08T13:59:41.824Z,3.13
2023-01-08T14:02:26.908Z,1.73
2023-01-08T14:04:55.568Z,1.80
2023-01-08T14:07:26.367Z,1.60
2023-01-08T14:09:54.136Z,1.70
2023-01-08T14:12:24.062Z,1.90
2023-01-08T14:14:59.592Z,2.38
2023-01-08T14:17:32.548Z,223.07
2023-01-08T14:20:00.035Z,12.30
2023-01-08T14:22:32.677Z,3.13
2023-01-08T14:25:06.668Z,2.70
2023-01-08T14:27:35.481Z,2.15
2023-01-08T14:30:03.301Z,3.53
2023-01-08T14:32:31.480Z,2.30
2023-01-08T14:35:04.939Z,2.60
2023-01-08T14:37:32.351Z,5.70
2023-01-08T14:39:59.733Z,2.58
2023-01-08T14:42:53.567Z,2.38
2023-01-08T14:45:25.629Z,2.38
2023-01-08T14:48:22.679Z,2.65
2023-01-08T14:51:05.831Z,3.25
2023-01-08T14:53:36.987Z,2.15
2023-01-08T14:56:06.130Z,2.40
2023-01-08T14:58:40.677Z,7.93
2023-01-08T15:01:20.499Z,4.78
2023-01-08T15:03:50.947Z,2.30
2023-01-08T15:06:29.737Z,2.40
2023-01-08T15:08:58.536Z,3.10
2023-01-08T15:11:34.656Z,3.00
2023-01-08T15:14:13.730Z,3.70
2023-01-08T15:16:43.368Z,2.42
2023-01-08T15:19:18.294Z,2.95
2023-01-08T15:21:50.212Z,2.90
2023-01-08T15:24:33.424Z,3.67
2023-01-08T15:27:10.095Z,3.60
2023-01-08T15:30:02.013Z,2.60
2023-01-08T15:32:39.295Z,8.30
2023-01-08T15:35:18.398Z,9.50
2023-01-08T15:37:45.956Z,3.53
2023-01-08T15:40:13.734Z,3.95
2023-01-08T15:42:59.603Z,3.95
2023-01-08T15:45:29.923Z,3.08
2023-01-08T15:47:57.313Z,3.50
2023-01-08T15:50:26.584Z,4.38
2023-01-08T15:52:56.543Z,2.95
2023-01-08T15:55:25.248Z,2.70
2023-01-08T15:57:52.832Z,3.30
2023-01-08T16:00:22.712Z,4.18
2023-01-08T16:02:52.109Z,7.15
2023-01-08T16:05:21.726Z,5.95
2023-01-08T16:07:49.223Z,4.25
2023-01-08T16:10:17.676Z,3.42
2023-01-08T16:12:45.480Z,4.50
2023-01-08T16:15:14.515Z,4.30
2023-01-08T16:17:42.421Z,65.88
2023-01-08T16:20:10.814Z,40.85
2023-01-08T16:22:38.376Z,9.63
2023-01-08T16:25:06.324Z,14.07
2023-01-08T16:27:34.426Z,5.57
2023-01-08T16:30:01.783Z,15.60
2023-01-08T16:32:29.108Z,27.38
2023-01-08T16:34:56.498Z,8.13
2023-01-08T16:37:23.916Z,7.28
2023-01-08T16:39:51.393Z,21.92
2023-01-08T16:42:18.845Z,19.77
2023-01-08T16:44:46.300Z,12.13
2023-01-08T16:47:13.712Z,12.80
2023-01-08T16:49:41.842Z,17.63
2023-01-08T16:52:09.826Z,13.15
2023-01-08T16:54:37.664Z,10.07
2023-01-08T16:57:05.932Z,11.45
2023-01-08T16:59:33.292Z,6.72
2023-01-08T17:02:03.282Z,7.82
2023-01-08T17:04:31.353Z,9.13
2023-01-08T17:06:59.104Z,14.77
2023-01-08T17:09:26.695Z,25.90
2023-01-08T17:11:54.015Z,12.65
2023-01-08T17:14:21.377Z,13.85
2023-01-08T17:16:49.572Z,18.05
2023-01-08T17:19:17.712Z,31.55
2023-01-08T17:21:46.265Z,55.42
2023-01-08T17:24:13.921Z,47.28
2023-01-08T17:26:41.323Z,38.03
2023-01-08T17:29:08.729Z,13.85
2023-01-08T17:31:40.373Z,15.77
2023-01-08T17:34:12.088Z,8.82
2023-01-08T17:36:39.883Z,17.95
2023-01-08T17:39:07.527Z,18.42
2023-01-08T17:41:56.034Z,16.85
2023-01-08T17:44:26.442Z,34.83
2023-01-08T17:46:53.992Z,19.38
2023-01-08T17:49:21.301Z,9.38
2023-01-08T17:51:48.937Z,8.70
2023-01-08T17:54:18.351Z,9.55
2023-01-08T17:56:46.093Z,27.40
2023-01-08T17:59:15.287Z,23.50
2023-01-08T18:01:42.847Z,31.45
2023-01-08T18:04:10.213Z,40.70
2023-01-08T18:06:37.858Z,37.90
2023-01-08T18:09:05.377Z,38.80
2023-01-08T18:11:33.473Z,17.23
2023-01-08T18:14:02.628Z,15.10
2023-01-08T18:16:31.107Z,14.75
2023-01-08T18:18:59.389Z,86.28
2023-01-08T18:21:28.288Z,72.22
2023-01-08T18:23:55.658Z,34.40
2023-01-08T18:26:23.756Z,12.65
2023-01-08T18:28:53.192Z,9.45
2023-01-08T18:31:21.367Z,26.55
2023-01-08T18:33:55.666Z,31.45
2023-01-08T18:36:23.547Z,32.38
2023-01-08T18:38:53.527Z,19.02
2023-01-08T18:41:39.789Z,26.40
2023-01-08T18:44:08.644Z,45.47
2023-01-08T18:46:37.010Z,20.98
2023-01-08T18:49:05.267Z,16.95
2023-01-08T18:51:32.845Z,13.23
2023-01-08T18:54:00.305Z,12.77
2023-01-08T18:56:30.965Z,18.40
2023-01-08T18:58:58.488Z,14.82
2023-01-08T19:01:26.587Z,34.35
2023-01-08T19:03:54.211Z,23.48
2023-01-08T19:06:21.838Z,20.52
2023-01-08T19:08:49.547Z,16.20
2023-01-08T19:11:17.523Z,9.25
2023-01-08T19:13:44.896Z,7.20
2023-01-08T19:16:14.068Z,5.97
2023-01-08T19:18:41.649Z,19.38
2023-01-08T19:21:11.508Z,19.50
2023-01-08T19:23:38.904Z,23.23
2023-01-08T19:26:09.814Z,29.00
2023-01-08T19:28:37.268Z,25.60
2023-01-08T19:31:04.764Z,27.13
2023-01-08T19:33:32.496Z,22.60
2023-01-08T19:36:08.922Z,25.55
2023-01-08T19:38:36.935Z,67.45
2023-01-08T19:41:05.136Z,63.63
2023-01-08T19:43:44.481Z,32.25
2023-01-08T19:46:15.720Z,69.68
2023-01-08T19:48:45.641Z,34.67
2023-01-08T19:51:13.676Z,73.93
2023-01-08T19:53:41.216Z,98.82
2023-01-08T19:56:14.216Z,148.98
2023-01-08T19:58:42.135Z,46.10
2023-01-08T20:01:18.824Z,61.83
2023-01-08T20:03:46.856Z,63.20
2023-01-08T20:06:20.761Z,154.55
2023-01-08T20:08:54.376Z,113.43
2023-01-08T20:11:26.011Z,101.00
2023-01-08T20:13:55.709Z,108.25
2023-01-08T20:16:24.697Z,240.95
2023-01-08T20:18:55.226Z,137.25
2023-01-08T20:21:24.160Z,46.60
2023-01-08T20:24:01.980Z,36.08
2023-01-08T20:26:32.008Z,41.28
2023-01-08T20:28:59.967Z,42.33
2023-01-08T20:31:34.202Z,56.08
2023-01-08T20:34:09.042Z,59.53
2023-01-08T20:36:37.101Z,52.78
2023-01-08T20:39:10.054Z,46.80
2023-01-08T20:41:37.554Z,22.20
2023-01-08T20:44:08.408Z,21.25
2023-01-08T20:46:39.880Z,16.25
2023-01-08T20:49:12.045Z,26.77
2023-01-08T20:51:46.252Z,20.02
2023-01-08T20:54:22.073Z,21.92
2023-01-08T20:56:56.284Z,14.02
2023-01-08T20:59:27.437Z,15.93
2023-01-08T21:01:55.218Z,14.68
2023-01-08T21:04:25.746Z,12.90
2023-01-08T21:06:56.465Z,13.50
2023-01-08T21:09:23.849Z,12.82
2023-01-08T21:11:51.234Z,15.00
2023-01-08T21:14:18.648Z,11.32
2023-01-08T21:17:00.255Z,10.00
2023-01-08T21:19:27.742Z,10.10
2023-01-08T21:21:55.064Z,8.25
2023-01-08T21:24:22.554Z,8.38
2023-01-08T21:26:50.987Z,9.45
2023-01-08T21:29:21.028Z,8.27
2023-01-08T21:31:48.799Z,8.13
2023-01-08T21:34:16.276Z,7.85
2023-01-08T21:36:43.654Z,8.00
2023-01-08T21:39:11.598Z,10.00
2023-01-08T21:42:00.325Z,9.80
2023-01-08T21:44:47.227Z,8.65
2023-01-08T21:47:17.710Z,6.35
2023-01-08T21:49:48.229Z,6.75
2023-01-08T21:52:37.278Z,8.93
2023-01-08T21:55:05.006Z,8.10
2023-01-08T21:57:39.059Z,15.25
2023-01-08T22:00:10.084Z,6.78
2023-01-08T22:02:40.248Z,7.47
2023-01-08T22:05:10.928Z,8.43
2023-01-08T22:07:40.765Z,7.35
2023-01-08T22:10:18.081Z,103.43
2023-01-08T22:12:48.675Z,13.35
2023-01-08T22:15:20.130Z,8.77
2023-01-08T22:17:50.773Z,5.00
2023-01-08T22:20:41.570Z,6.45
2023-01-08T22:23:18.220Z,3.92
2023-01-08T22:28:42.309Z,5.05
2023-01-08T22:31:13.865Z,4.18
2023-01-08T22:33:41.792Z,3.88
2023-01-08T22:36:14.074Z,5.60
